createdAt,value
2022-09-27T00:02:46.525Z,3.27
2022-09-27T00:05:51.878Z,6.27
2022-09-27T00:08:58.537Z,2.97
2022-09-27T00:12:04.147Z,2.30
2022-09-27T00:15:10.055Z,2.50
2022-09-27T00:18:17.053Z,3.47
2022-09-27T00:21:25.110Z,4.87
2022-09-27T00:24:30.363Z,2.57
2022-09-27T00:27:36.108Z,2.43
2022-09-27T00:30:41.787Z,2.83
2022-09-27T00:33:48.052Z,5.37
2022-09-27T00:36:53.543Z,2.53
2022-09-27T00:39:59.611Z,4.97
2022-09-27T00:43:05.296Z,3.67
2022-09-27T00:46:10.838Z,3.40
2022-09-27T00:49:16.660Z,4.63
2022-09-27T00:52:22.292Z,2.70
2022-09-27T00:55:34.491Z,4.77
2022-09-27T00:58:40.006Z,1.57
2022-09-27T01:01:45.350Z,2.10
2022-09-27T01:04:51.893Z,1.90
2022-09-27T01:08:00.783Z,3.03
2022-09-27T01:11:06.723Z,6.27
2022-09-27T01:14:11.922Z,5.33
2022-09-27T01:17:17.205Z,1.83
2022-09-27T01:20:22.659Z,4.07
2022-09-27T01:23:27.906Z,2.33
2022-09-27T01:26:33.470Z,1.80
2022-09-27T01:29:39.236Z,1.90
2022-09-27T01:32:44.729Z,4.00
2022-09-27T01:35:50.199Z,1.97
2022-09-27T01:38:56.409Z,2.30
2022-09-27T01:42:02.188Z,4.40
2022-09-27T01:45:07.922Z,3.40
2022-09-27T01:48:13.500Z,2.07
2022-09-27T01:51:18.822Z,2.47
2022-09-27T01:54:24.448Z,2.07
2022-09-27T01:57:31.168Z,5.97
2022-09-27T02:00:37.115Z,3.13
2022-09-27T02:03:42.713Z,2.77
2022-09-27T02:06:48.434Z,2.17
2022-09-27T02:09:55.857Z,3.10
2022-09-27T02:13:01.589Z,2.87
2022-09-27T02:16:07.032Z,4.70
2022-09-27T02:19:12.973Z,2.33
2022-09-27T02:22:18.215Z,2.17
2022-09-27T02:25:23.724Z,2.67
2022-09-27T02:28:35.145Z,3.07
2022-09-27T02:31:40.597Z,2.97
2022-09-27T02:34:46.222Z,3.40
2022-09-27T02:37:54.098Z,2.83
2022-09-27T02:40:59.900Z,6.10
2022-09-27T02:44:06.045Z,5.73
2022-09-27T02:47:12.739Z,4.27
2022-09-27T02:50:18.549Z,2.83
2022-09-27T02:53:23.908Z,4.03
2022-09-27T02:56:29.364Z,4.17
2022-09-27T02:59:34.897Z,2.90
2022-09-27T03:02:40.537Z,3.43
2022-09-27T03:05:46.989Z,2.77
2022-09-27T03:08:52.910Z,2.60
2022-09-27T03:11:58.593Z,4.27
2022-09-27T03:15:04.156Z,3.23
2022-09-27T03:18:09.910Z,5.43
2022-09-27T03:21:15.625Z,2.47
2022-09-27T03:24:21.288Z,2.57
2022-09-27T03:27:28.157Z,4.33
2022-09-27T03:30:33.696Z,2.77
2022-09-27T03:33:39.666Z,3.87
2022-09-27T03:36:45.439Z,3.50
2022-09-27T03:39:52.117Z,2.80
2022-09-27T03:42:57.564Z,3.13
2022-09-27T03:46:03.431Z,3.40
2022-09-27T03:49:09.105Z,3.63
2022-09-27T03:52:15.583Z,5.70
2022-09-27T03:55:20.945Z,4.10
2022-09-27T03:58:26.287Z,3.10
2022-09-27T04:01:31.908Z,2.40
2022-09-27T04:04:37.308Z,2.70
2022-09-27T04:08:09.460Z,6.10
2022-09-27T04:11:15.455Z,4.17
2022-09-27T04:14:20.986Z,3.00
2022-09-27T04:17:27.622Z,4.90
2022-09-27T04:20:32.953Z,4.43
2022-09-27T04:23:38.593Z,3.67
2022-09-27T04:26:44.344Z,5.87
2022-09-27T04:29:50.219Z,4.43
2022-09-27T04:32:56.457Z,5.23
2022-09-27T04:36:20.167Z,4.23
2022-09-27T04:39:25.720Z,5.50
2022-09-27T04:42:31.729Z,4.77
2022-09-27T04:45:49.272Z,6.07
2022-09-27T04:48:57.109Z,4.33
2022-09-27T04:52:02.651Z,8.17
2022-09-27T04:55:11.333Z,3.67
2022-09-27T04:58:17.847Z,3.00
2022-09-27T05:01:29.754Z,4.27
2022-09-27T05:04:36.145Z,7.07
2022-09-27T05:07:41.818Z,7.17
2022-09-27T05:10:47.492Z,4.70
2022-09-27T05:13:53.091Z,4.73
2022-09-27T05:16:58.505Z,6.17
2022-09-27T05:20:04.267Z,6.13
2022-09-27T05:23:09.688Z,6.27
2022-09-27T05:26:16.112Z,5.93
2022-09-27T05:29:21.882Z,3.93
2022-09-27T05:32:27.214Z,5.13
2022-09-27T05:35:34.150Z,7.80
2022-09-27T05:38:40.029Z,9.60
2022-09-27T05:41:45.763Z,5.17
2022-09-27T05:44:51.468Z,5.47
2022-09-27T05:47:57.152Z,4.00
2022-09-27T05:51:02.986Z,4.67
2022-09-27T05:54:08.470Z,5.77
2022-09-27T05:57:14.708Z,5.20
2022-09-27T06:00:20.848Z,6.77
2022-09-27T06:03:32.761Z,4.50
2022-09-27T06:06:40.756Z,4.57
2022-09-27T06:09:46.446Z,4.40
2022-09-27T06:12:52.851Z,4.17
2022-09-27T06:15:58.681Z,3.80
2022-09-27T06:19:05.411Z,3.77
2022-09-27T06:22:11.181Z,6.70
2022-09-27T06:25:16.726Z,5.97
2022-09-27T06:28:26.475Z,4.90
2022-09-27T06:31:32.358Z,5.57
2022-09-27T06:34:37.823Z,4.00
2022-09-27T06:37:43.163Z,10.70
2022-09-27T06:40:48.789Z,4.83
2022-09-27T06:43:54.518Z,7.00
2022-09-27T06:47:00.426Z,4.97
2022-09-27T06:50:06.698Z,3.93
2022-09-27T06:53:12.075Z,5.07
2022-09-27T06:56:17.357Z,2.80
2022-09-27T06:59:41.617Z,5.60
2022-09-27T07:02:47.789Z,2.83
2022-09-27T07:05:53.461Z,6.97
2022-09-27T07:08:59.126Z,4.17
2022-09-27T07:12:05.650Z,2.87
2022-09-27T07:15:11.387Z,4.73
2022-09-27T07:18:17.577Z,3.90
2022-09-27T07:21:42.205Z,2.60
2022-09-27T07:24:50.979Z,3.33
2022-09-27T07:27:56.375Z,5.60
2022-09-27T07:31:02.544Z,4.77
2022-09-27T07:34:09.133Z,5.63
2022-09-27T07:37:21.174Z,2.93
2022-09-27T07:40:27.000Z,4.73
2022-09-27T07:43:33.204Z,4.20
2022-09-27T07:46:38.856Z,2.73
2022-09-27T07:49:44.186Z,4.37
2022-09-27T07:52:51.136Z,3.57
2022-09-27T07:55:57.320Z,6.77
2022-09-27T07:59:02.803Z,2.30
2022-09-27T08:02:08.563Z,2.40
2022-09-27T08:05:14.471Z,2.53
2022-09-27T08:08:26.367Z,2.23
2022-09-27T08:11:31.914Z,3.30
2022-09-27T08:14:42.227Z,4.70
2022-09-27T08:17:49.344Z,4.27
2022-09-27T08:20:55.519Z,3.13
2022-09-27T08:24:04.175Z,2.97
2022-09-27T08:27:11.994Z,3.33
2022-09-27T08:30:17.941Z,2.70
2022-09-27T08:33:29.842Z,2.90
2022-09-27T08:36:37.577Z,4.33
2022-09-27T08:39:47.029Z,5.23
2022-09-27T08:42:53.758Z,4.63
2022-09-27T08:46:00.234Z,3.97
2022-09-27T08:49:06.012Z,2.60
2022-09-27T08:52:11.628Z,5.53
2022-09-27T08:55:20.710Z,3.73
2022-09-27T08:58:26.322Z,3.93
2022-09-27T09:01:31.722Z,5.20
2022-09-27T09:04:37.267Z,4.73
2022-09-27T09:07:42.970Z,3.80
2022-09-27T09:11:06.495Z,3.87
2022-09-27T09:14:15.065Z,5.00
2022-09-27T09:17:21.355Z,3.87
2022-09-27T09:20:26.836Z,3.90
2022-09-27T09:23:32.731Z,5.10
2022-09-27T09:27:08.678Z,3.90
2022-09-27T09:30:07.288Z,5.23
2022-09-27T09:33:15.939Z,4.07
2022-09-27T09:36:22.267Z,5.80
2022-09-27T09:39:27.717Z,4.17
2022-09-27T09:42:36.407Z,4.30
2022-09-27T09:45:42.967Z,4.67
2022-09-27T09:48:49.985Z,4.80
2022-09-27T09:51:56.975Z,4.87
2022-09-27T09:55:02.875Z,6.07
2022-09-27T09:58:14.537Z,3.90
2022-09-27T10:01:24.142Z,6.47
2022-09-27T10:04:32.823Z,4.27
2022-09-27T10:07:38.347Z,5.30
2022-09-27T10:10:44.002Z,6.03
2022-09-27T10:13:55.818Z,5.10
2022-09-27T10:17:01.070Z,5.13
2022-09-27T10:20:11.621Z,5.93
2022-09-27T10:23:19.347Z,4.77
2022-09-27T10:26:25.132Z,4.53
2022-09-27T10:29:34.852Z,5.30
2022-09-27T10:32:42.044Z,3.83
2022-09-27T10:35:49.556Z,4.23
2022-09-27T10:38:55.781Z,3.23
2022-09-27T10:42:01.329Z,3.60
2022-09-27T10:45:06.687Z,3.00
2022-09-27T10:48:11.955Z,4.00
2022-09-27T10:51:18.484Z,3.80
2022-09-27T10:54:28.761Z,4.10
2022-09-27T10:57:34.326Z,2.67
2022-09-27T11:00:39.983Z,3.17
2022-09-27T11:03:45.793Z,3.40
2022-09-27T11:06:51.129Z,2.87
2022-09-27T11:09:59.812Z,2.93
2022-09-27T11:13:05.118Z,3.13
2022-09-27T11:16:14.606Z,5.47
2022-09-27T11:19:21.548Z,3.40
2022-09-27T11:22:28.556Z,2.23
2022-09-27T11:25:34.716Z,3.67
2022-09-27T11:28:40.335Z,5.97
2022-09-27T11:31:50.136Z,3.23
2022-09-27T11:34:55.741Z,2.90
2022-09-27T11:38:02.456Z,2.67
2022-09-27T11:41:08.884Z,4.00
2022-09-27T11:44:14.793Z,4.00
2022-09-27T11:47:20.653Z,7.10
2022-09-27T11:50:26.758Z,2.90
2022-09-27T11:53:33.029Z,3.13
2022-09-27T11:56:38.455Z,4.17
2022-09-27T11:59:44.622Z,4.30
2022-09-27T12:02:50.381Z,2.87
2022-09-27T12:05:58.451Z,3.03
2022-09-27T12:09:05.530Z,3.07
2022-09-27T12:12:10.959Z,3.10
2022-09-27T12:15:16.202Z,4.97
2022-09-27T12:18:21.668Z,2.83
2022-09-27T12:21:27.355Z,2.90
2022-09-27T12:24:33.105Z,3.87
2022-09-27T12:27:38.693Z,4.90
2022-09-27T12:30:44.193Z,3.97
2022-09-27T12:33:51.295Z,2.80
2022-09-27T12:36:56.565Z,5.30
2022-09-27T12:40:01.848Z,5.23
2022-09-27T12:43:07.299Z,3.37
2022-09-27T12:46:13.285Z,4.00
2022-09-27T12:49:18.933Z,3.40
2022-09-27T12:52:25.617Z,3.10
2022-09-27T12:55:31.423Z,3.20
2022-09-27T12:58:40.610Z,3.80
2022-09-27T13:01:47.748Z,3.10
2022-09-27T13:04:53.981Z,4.40
2022-09-27T13:08:00.108Z,3.50
2022-09-27T13:11:05.845Z,3.77
2022-09-27T13:14:11.815Z,5.13
2022-09-27T13:17:17.603Z,3.10
2022-09-27T13:20:23.172Z,4.03
2022-09-27T13:23:29.228Z,3.13
2022-09-27T13:26:34.744Z,3.73
2022-09-27T13:29:42.165Z,3.33
2022-09-27T13:32:48.315Z,3.33
2022-09-27T13:35:53.748Z,5.07
2022-09-27T13:39:01.429Z,2.90
2022-09-27T13:42:07.321Z,3.80
2022-09-27T13:45:13.705Z,3.10
2022-09-27T13:48:19.108Z,3.20
2022-09-27T13:51:24.615Z,4.23
2022-09-27T13:54:29.902Z,3.27
2022-09-27T13:57:35.287Z,3.10
2022-09-27T14:00:45.335Z,4.07
2022-09-27T14:03:50.670Z,3.93
2022-09-27T14:06:57.457Z,3.63
2022-09-27T14:10:02.924Z,3.50
2022-09-27T14:13:08.647Z,2.73
2022-09-27T14:16:13.979Z,3.77
2022-09-27T14:19:19.601Z,3.53
2022-09-27T14:22:25.781Z,3.07
2022-09-27T14:25:31.183Z,2.77
2022-09-27T14:28:37.127Z,3.90
2022-09-27T14:31:48.281Z,3.73
2022-09-27T14:34:53.984Z,3.70
2022-09-27T14:38:02.410Z,3.37
2022-09-27T14:41:15.763Z,4.00
2022-09-27T14:44:25.879Z,4.70
2022-09-27T14:47:33.755Z,6.23
2022-09-27T14:50:39.521Z,6.93
2022-09-27T14:53:45.236Z,4.10
2022-09-27T14:56:53.621Z,3.97
2022-09-27T15:00:01.299Z,4.00
2022-09-27T15:03:09.067Z,3.60
2022-09-27T15:06:14.975Z,4.10
2022-09-27T15:09:20.841Z,3.60
2022-09-27T15:12:26.758Z,4.00
2022-09-27T15:15:32.427Z,4.23
2022-09-27T15:18:37.966Z,6.23
2022-09-27T15:21:43.531Z,6.27
2022-09-27T15:24:49.589Z,3.83
2022-09-27T15:27:55.331Z,3.73
2022-09-27T15:31:02.039Z,3.77
2022-09-27T15:34:07.519Z,4.37
2022-09-27T15:37:13.524Z,7.77
2022-09-27T15:40:19.781Z,4.60
2022-09-27T15:43:29.249Z,3.47
2022-09-27T15:46:35.419Z,3.67
2022-09-27T15:49:48.850Z,5.57
2022-09-27T15:52:56.091Z,4.17
2022-09-27T15:56:02.128Z,4.63
2022-09-27T15:59:07.968Z,3.60
2022-09-27T16:02:13.718Z,3.70
2022-09-27T16:05:19.363Z,4.43
2022-09-27T16:08:24.857Z,4.10
2022-09-27T16:11:30.215Z,4.83
2022-09-27T16:14:35.662Z,4.77
2022-09-27T16:17:42.739Z,6.47
2022-09-27T16:20:48.469Z,6.67
2022-09-27T16:23:53.960Z,9.20
2022-09-27T16:27:00.339Z,4.63
2022-09-27T16:30:06.011Z,4.07
2022-09-27T16:33:11.904Z,4.60
2022-09-27T16:36:20.159Z,4.50
2022-09-27T16:39:26.792Z,5.83
2022-09-27T16:42:34.103Z,6.10
2022-09-27T16:45:40.314Z,4.77
2022-09-27T16:48:45.943Z,6.33
2022-09-27T16:52:00.072Z,6.93
2022-09-27T16:55:06.812Z,4.97
2022-09-27T16:58:12.463Z,5.70
2022-09-27T17:01:19.027Z,5.13
2022-09-27T17:04:24.610Z,5.00
2022-09-27T17:07:30.468Z,5.80
2022-09-27T17:10:38.766Z,11.93
2022-09-27T17:13:45.485Z,6.50
2022-09-27T17:16:51.633Z,7.13
2022-09-27T17:19:56.829Z,6.40
2022-09-27T17:23:03.420Z,4.77
2022-09-27T17:26:08.881Z,5.87
2022-09-27T17:29:14.848Z,6.10
2022-09-27T17:32:24.764Z,4.93
2022-09-27T17:35:31.642Z,5.57
2022-09-27T17:38:37.483Z,5.33
2022-09-27T17:41:44.368Z,15.23
2022-09-27T17:44:49.948Z,12.33
2022-09-27T17:48:13.819Z,5.97
2022-09-27T17:51:19.744Z,5.37
2022-09-27T17:54:28.012Z,8.43
2022-09-27T17:57:33.926Z,5.70
2022-09-27T18:00:39.756Z,9.17
2022-09-27T18:03:53.183Z,12.37
2022-09-27T18:06:59.258Z,6.00
2022-09-27T18:10:06.600Z,5.87
2022-09-27T18:13:12.947Z,6.53
2022-09-27T18:16:18.782Z,5.70
2022-09-27T18:19:24.790Z,101.33
2022-09-27T18:22:31.240Z,54.60
2022-09-27T18:25:40.847Z,8.07
2022-09-27T18:28:46.903Z,12.67
2022-09-27T18:31:52.331Z,7.33
2022-09-27T18:34:58.071Z,7.63
2022-09-27T18:38:03.361Z,6.20
2022-09-27T18:41:14.721Z,8.07
2022-09-27T18:44:21.083Z,8.20
2022-09-27T18:47:26.790Z,8.07
2022-09-27T18:50:32.622Z,7.13
2022-09-27T18:53:40.602Z,9.87
2022-09-27T18:56:46.326Z,6.40
2022-09-27T18:59:52.183Z,7.90
2022-09-27T19:02:58.459Z,8.43
2022-09-27T19:06:07.309Z,7.17
2022-09-27T19:09:13.169Z,7.83
2022-09-27T19:12:21.570Z,7.50
2022-09-27T19:15:30.149Z,7.97
2022-09-27T19:18:38.376Z,8.47
2022-09-27T19:21:44.536Z,7.20
2022-09-27T19:24:49.974Z,7.50
2022-09-27T19:27:55.874Z,7.43
2022-09-27T19:31:02.487Z,7.13
2022-09-27T19:34:07.967Z,7.83
2022-09-27T19:37:14.246Z,6.07
2022-09-27T19:40:19.702Z,6.97
2022-09-27T19:43:25.031Z,8.40
2022-09-27T19:46:30.431Z,7.70
2022-09-27T19:49:36.357Z,6.03
2022-09-27T19:52:43.619Z,6.40
2022-09-27T19:55:49.359Z,7.53
2022-09-27T19:58:55.518Z,5.97
2022-09-27T20:02:01.101Z,5.80
2022-09-27T20:05:07.167Z,7.83
2022-09-27T20:08:14.217Z,5.73
2022-09-27T20:11:19.634Z,5.47
2022-09-27T20:14:28.087Z,5.90
2022-09-27T20:17:33.821Z,6.73
2022-09-27T20:20:39.255Z,7.30
2022-09-27T20:23:44.500Z,6.97
2022-09-27T20:26:50.571Z,7.93
2022-09-27T20:29:57.239Z,6.60
2022-09-27T20:33:22.377Z,6.47
2022-09-27T20:36:28.543Z,6.53
2022-09-27T20:39:34.250Z,6.40
2022-09-27T20:42:40.092Z,6.43
2022-09-27T20:45:45.911Z,5.90
2022-09-27T20:48:53.004Z,5.80
2022-09-27T20:51:58.351Z,5.83
2022-09-27T20:55:05.900Z,6.30
2022-09-27T20:58:10.988Z,6.43
2022-09-27T21:01:16.689Z,7.27
2022-09-27T21:04:26.200Z,6.23
2022-09-27T21:07:32.016Z,8.23
2022-09-27T21:10:37.448Z,8.97
2022-09-27T21:13:42.810Z,7.57
2022-09-27T21:16:48.359Z,7.73
2022-09-27T21:19:56.567Z,8.83
2022-09-27T21:23:02.266Z,7.87
2022-09-27T21:26:08.102Z,10.13
2022-09-27T21:29:13.660Z,7.40
2022-09-27T21:32:21.745Z,8.57
2022-09-27T21:35:27.617Z,9.87
2022-09-27T21:38:33.154Z,8.47
2022-09-27T21:41:39.153Z,9.17
2022-09-27T21:44:45.093Z,10.47
2022-09-27T21:47:53.650Z,11.10
2022-09-27T21:50:59.808Z,13.53
2022-09-27T21:54:05.357Z,13.27
2022-09-27T21:57:11.063Z,10.13
2022-09-27T22:00:16.853Z,12.80
2022-09-27T22:03:22.890Z,12.17
2022-09-27T22:18:40.564Z,17.77
2022-09-27T22:21:46.267Z,16.27
2022-09-27T22:24:18.420Z,18.13
2022-09-27T22:26:49.045Z,20.50
2022-09-27T22:29:17.464Z,19.67
2022-09-27T22:31:45.565Z,20.57
2022-09-27T22:34:18.598Z,19.13
2022-09-27T22:36:47.731Z,18.90
2022-09-27T22:39:17.475Z,18.03
2022-09-27T22:41:49.499Z,21.63
2022-09-27T22:44:18.719Z,16.53
2022-09-27T22:46:47.344Z,18.10
2022-09-27T22:49:15.393Z,15.47
2022-09-27T22:51:43.792Z,17.77
2022-09-27T22:54:11.761Z,17.77
2022-09-27T22:56:41.182Z,15.73
2022-09-27T22:59:09.407Z,17.87
2022-09-27T23:01:37.889Z,17.03
2022-09-27T23:04:06.174Z,15.53
2022-09-27T23:06:37.548Z,16.07
2022-09-27T23:09:06.434Z,18.40
2022-09-27T23:11:34.694Z,16.00
2022-09-27T23:14:05.966Z,23.00
2022-09-27T23:16:35.648Z,15.13
2022-09-27T23:19:04.086Z,16.13
2022-09-27T23:21:32.207Z,15.03
2022-09-27T23:24:02.941Z,19.63
2022-09-27T23:26:31.125Z,16.90
2022-09-27T23:29:00.964Z,16.07
2022-09-27T23:31:32.425Z,18.17
2022-09-27T23:34:04.261Z,18.63
2022-09-27T23:36:32.542Z,16.53
2022-09-27T23:39:01.695Z,18.03
2022-09-27T23:41:29.892Z,17.20
2022-09-27T23:43:58.019Z,16.80
2022-09-27T23:46:26.335Z,20.50
2022-09-27T23:48:58.996Z,21.90
2022-09-27T23:51:27.218Z,19.50
2022-09-27T23:53:57.174Z,16.97
2022-09-27T23:56:25.757Z,22.23
2022-09-27T23:58:53.747Z,19.90
